sensor_id;sensor_type;location;lat;lon;timestamp;pressure;altitude;pressure_sealevel;temperature;humidity
78198;BME280;67472;51.554;7.812;2023-04-10T00:01:08;101398.25;;;5.39;100.00
78198;BME280;67472;51.554;7.812;2023-04-10T00:03:54;101407.88;;;5.39;100.00
78198;BME280;67472;51.554;7.812;2023-04-10T00:06:39;101399.91;;;5.40;100.00
78198;BME280;67472;51.554;7.812;2023-04-10T00:09:25;101407.56;;;5.45;100.00
78198;BME280;67472;51.554;7.812;2023-04-10T00:12:10;101398.59;;;5.49;100.00
78198;BME280;67472;51.554;7.812;2023-04-10T00:14:55;101389.22;;;5.62;100.00
78198;BME280;67472;51.554;7.812;2023-04-10T00:17:40;101382.72;;;5.69;100.00
78198;BME280;67472;51.554;7.812;2023-04-10T00:20:25;101372.19;;;5.70;100.00
78198;BME280;67472;51.554;7.812;2023-04-10T00:23:11;101370.91;;;5.78;100.00
78198;BME280;67472;51.554;7.812;2023-04-10T00:25:56;101367.09;;;5.67;100.00
78198;BME280;67472;51.554;7.812;2023-04-10T00:28:41;101365.38;;;5.66;100.00
78198;BME280;67472;51.554;7.812;2023-04-10T00:31:26;101370.41;;;5.71;100.00
78198;BME280;67472;51.554;7.812;2023-04-10T00:34:11;101367.25;;;5.64;100.00
78198;BME280;67472;51.554;7.812;2023-04-10T00:36:58;101360.28;;;5.63;100.00
78198;BME280;67472;51.554;7.812;2023-04-10T00:39:43;101362.75;;;5.66;100.00
78198;BME280;67472;51.554;7.812;2023-04-10T00:42:28;101352.38;;;5.65;100.00
78198;BME280;67472;51.554;7.812;2023-04-10T00:45:13;101348.50;;;5.72;100.00
78198;BME280;67472;51.554;7.812;2023-04-10T00:47:58;101354.28;;;5.61;100.00
78198;BME280;67472;51.554;7.812;2023-04-10T00:50:45;101344.72;;;5.60;100.00
78198;BME280;67472;51.554;7.812;2023-04-10T00:53:30;101346.53;;;5.60;100.00
78198;BME280;67472;51.554;7.812;2023-04-10T00:56:17;101355.31;;;5.59;100.00
78198;BME280;67472;51.554;7.812;2023-04-10T00:59:02;101345.75;;;5.58;100.00
78198;BME280;67472;51.554;7.812;2023-04-10T01:01:47;101348.59;;;5.53;100.00
78198;BME280;67472;51.554;7.812;2023-04-10T01:04:32;101341.06;;;5.47;100.00
78198;BME280;67472;51.554;7.812;2023-04-10T01:07:31;101338.66;;;5.43;100.00
78198;BME280;67472;51.554;7.812;2023-04-10T01:13:27;101342.44;;;5.37;100.00
78198;BME280;67472;51.554;7.812;2023-04-10T01:16:22;101336.69;;;5.31;100.00
78198;BME280;67472;51.554;7.812;2023-04-10T01:22:16;101336.13;;;5.41;100.00
78198;BME280;67472;51.554;7.812;2023-04-10T01:31:03;101327.03;;;5.65;100.00
78198;BME280;67472;51.554;7.812;2023-04-10T01:33:57;101322.13;;;5.75;100.00
78198;BME280;67472;51.554;7.812;2023-04-10T01:36:48;101317.72;;;5.76;100.00
78198;BME280;67472;51.554;7.812;2023-04-10T01:39:38;101318.16;;;5.84;100.00
78198;BME280;67472;51.554;7.812;2023-04-10T01:42:26;101315.03;;;5.94;100.00
78198;BME280;67472;51.554;7.812;2023-04-10T01:45:14;101305.56;;;6.07;100.00
78198;BME280;67472;51.554;7.812;2023-04-10T01:48:04;101313.38;;;6.09;100.00
78198;BME280;67472;51.554;7.812;2023-04-10T01:50:49;101313.25;;;6.10;100.00
78198;BME280;67472;51.554;7.812;2023-04-10T01:53:35;101312.25;;;6.13;100.00
78198;BME280;67472;51.554;7.812;2023-04-10T01:56:20;101310.25;;;6.18;100.00
78198;BME280;67472;51.554;7.812;2023-04-10T01:59:06;101300.94;;;6.28;100.00
78198;BME280;67472;51.554;7.812;2023-04-10T02:01:56;101288.66;;;6.44;100.00
78198;BME280;67472;51.554;7.812;2023-04-10T02:04:41;101270.53;;;6.55;100.00
78198;BME280;67472;51.554;7.812;2023-04-10T02:08:10;101266.53;;;6.64;100.00
78198;BME280;67472;51.554;7.812;2023-04-10T02:11:25;101251.03;;;6.75;100.00
78198;BME280;67472;51.554;7.812;2023-04-10T02:14:16;101240.59;;;6.73;100.00
78198;BME280;67472;51.554;7.812;2023-04-10T02:17:02;101248.41;;;6.75;100.00
78198;BME280;67472;51.554;7.812;2023-04-10T02:19:47;101246.00;;;6.70;100.00
78198;BME280;67472;51.554;7.812;2023-04-10T02:22:35;101249.31;;;6.74;100.00
78198;BME280;67472;51.554;7.812;2023-04-10T02:25:21;101243.31;;;6.72;100.00
78198;BME280;67472;51.554;7.812;2023-04-10T02:28:07;101246.16;;;6.83;100.00
78198;BME280;67472;51.554;7.812;2023-04-10T02:30:52;101244.41;;;6.83;100.00
78198;BME280;67472;51.554;7.812;2023-04-10T02:33:37;101237.19;;;6.87;100.00
78198;BME280;67472;51.554;7.812;2023-04-10T02:36:22;101237.53;;;6.81;100.00
78198;BME280;67472;51.554;7.812;2023-04-10T02:39:07;101240.91;;;6.83;100.00
78198;BME280;67472;51.554;7.812;2023-04-10T02:41:59;101222.84;;;6.93;100.00
78198;BME280;67472;51.554;7.812;2023-04-10T02:44:46;101226.91;;;6.98;100.00
78198;BME280;67472;51.554;7.812;2023-04-10T02:47:30;101224.94;;;7.02;100.00
78198;BME280;67472;51.554;7.812;2023-04-10T02:50:16;101222.03;;;7.06;100.00
78198;BME280;67472;51.554;7.812;2023-04-10T02:53:02;101225.69;;;7.04;100.00
78198;BME280;67472;51.554;7.812;2023-04-10T02:55:47;101222.31;;;7.02;100.00
78198;BME280;67472;51.554;7.812;2023-04-10T02:58:32;101226.22;;;6.95;100.00
78198;BME280;67472;51.554;7.812;2023-04-10T03:01:18;101229.22;;;6.89;100.00
78198;BME280;67472;51.554;7.812;2023-04-10T03:04:05;101228.28;;;6.90;100.00
78198;BME280;67472;51.554;7.812;2023-04-10T03:06:55;101222.66;;;6.96;100.00
78198;BME280;67472;51.554;7.812;2023-04-10T03:09:41;101222.56;;;6.97;100.00
78198;BME280;67472;51.554;7.812;2023-04-10T03:12:26;101221.81;;;6.95;100.00
78198;BME280;67472;51.554;7.812;2023-04-10T03:15:11;101225.00;;;7.00;100.00
78198;BME280;67472;51.554;7.812;2023-04-10T03:17:56;101220.31;;;6.91;100.00
78198;BME280;67472;51.554;7.812;2023-04-10T03:20:41;101218.44;;;6.93;100.00
78198;BME280;67472;51.554;7.812;2023-04-10T03:23:26;101222.47;;;6.85;100.00
78198;BME280;67472;51.554;7.812;2023-04-10T03:26:11;101224.59;;;6.78;100.00
78198;BME280;67472;51.554;7.812;2023-04-10T03:28:57;101214.13;;;6.62;100.00
78198;BME280;67472;51.554;7.812;2023-04-10T03:31:41;101221.69;;;6.53;100.00
78198;BME280;67472;51.554;7.812;2023-04-10T03:34:26;101216.97;;;6.44;100.00
78198;BME280;67472;51.554;7.812;2023-04-10T03:37:11;101203.88;;;6.28;100.00
78198;BME280;67472;51.554;7.812;2023-04-10T03:39:56;101213.28;;;6.16;100.00
78198;BME280;67472;51.554;7.812;2023-04-10T03:42:41;101215.47;;;6.08;100.00
78198;BME280;67472;51.554;7.812;2023-04-10T03:45:27;101220.47;;;5.97;100.00
78198;BME280;67472;51.554;7.812;2023-04-10T03:48:12;101215.75;;;5.88;100.00
78198;BME280;67472;51.554;7.812;2023-04-10T03:51:01;101215.13;;;5.83;100.00
78198;BME280;67472;51.554;7.812;2023-04-10T03:53:46;101217.22;;;5.77;100.00
78198;BME280;67472;51.554;7.812;2023-04-10T03:56:33;101219.91;;;5.59;100.00
78198;BME280;67472;51.554;7.812;2023-04-10T03:59:19;101221.31;;;5.49;100.00
78198;BME280;67472;51.554;7.812;2023-04-10T04:02:05;101228.13;;;5.36;100.00
78198;BME280;67472;51.554;7.812;2023-04-10T04:04:51;101224.59;;;5.20;100.00
78198;BME280;67472;51.554;7.812;2023-04-10T04:07:59;101231.41;;;5.07;100.00
78198;BME280;67472;51.554;7.812;2023-04-10T04:10:51;101230.81;;;5.02;100.00
78198;BME280;67472;51.554;7.812;2023-04-10T04:13:43;101235.66;;;4.92;100.00
78198;BME280;67472;51.554;7.812;2023-04-10T04:16:35;101234.94;;;4.89;100.00
78198;BME280;67472;51.554;7.812;2023-04-10T04:19:38;101234.09;;;4.88;100.00
78198;BME280;67472;51.554;7.812;2023-04-10T04:22:53;101236.34;;;4.79;100.00
78198;BME280;67472;51.554;7.812;2023-04-10T04:26:00;101235.84;;;4.53;100.00
78198;BME280;67472;51.554;7.812;2023-04-10T04:29:14;101243.47;;;4.41;100.00
78198;BME280;67472;51.554;7.812;2023-04-10T04:32:06;101237.00;;;4.48;100.00
78198;BME280;67472;51.554;7.812;2023-04-10T04:35:09;101243.31;;;4.44;100.00
78198;BME280;67472;51.554;7.812;2023-04-10T04:38:00;101243.38;;;4.42;100.00
78198;BME280;67472;51.554;7.812;2023-04-10T04:41:04;101240.47;;;4.48;100.00
78198;BME280;67472;51.554;7.812;2023-04-10T04:44:01;101234.63;;;4.43;100.00
78198;BME280;67472;51.554;7.812;2023-04-10T04:47:05;101233.09;;;4.21;100.00
78198;BME280;67472;51.554;7.812;2023-04-10T04:50:09;101236.97;;;4.12;100.00
78198;BME280;67472;51.554;7.812;2023-04-10T04:53:07;101234.03;;;4.01;100.00
78198;BME280;67472;51.554;7.812;2023-04-10T04:56:20;101243.00;;;3.95;100.00
78198;BME280;67472;51.554;7.812;2023-04-10T04:59:18;101235.88;;;3.99;100.00
78198;BME280;67472;51.554;7.812;2023-04-10T05:02:21;101240.59;;;4.10;100.00
78198;BME280;67472;51.554;7.812;2023-04-10T05:05:44;101232.31;;;4.19;100.00
78198;BME280;67472;51.554;7.812;2023-04-10T05:08:35;101225.94;;;4.24;100.00
78198;BME280;67472;51.554;7.812;2023-04-10T05:11:44;101224.66;;;4.33;100.00
78198;BME280;67472;51.554;7.812;2023-04-10T05:14:48;101222.75;;;4.36;100.00
78198;BME280;67472;51.554;7.812;2023-04-10T05:17:59;101219.22;;;4.37;100.00
78198;BME280;67472;51.554;7.812;2023-04-10T05:21:10;101218.38;;;4.37;100.00
78198;BME280;67472;51.554;7.812;2023-04-10T05:23:57;101224.22;;;4.42;100.00
78198;BME280;67472;51.554;7.812;2023-04-10T05:26:54;101219.25;;;4.54;100.00
78198;BME280;67472;51.554;7.812;2023-04-10T05:29:49;101221.63;;;4.59;100.00
78198;BME280;67472;51.554;7.812;2023-04-10T05:32:56;101217.31;;;4.58;100.00
78198;BME280;67472;51.554;7.812;2023-04-10T05:35:53;101222.31;;;4.63;100.00
78198;BME280;67472;51.554;7.812;2023-04-10T05:38:56;101222.31;;;4.80;100.00
78198;BME280;67472;51.554;7.812;2023-04-10T05:41:57;101220.00;;;4.91;100.00
78198;BME280;67472;51.554;7.812;2023-04-10T05:44:43;101219.94;;;5.09;100.00
78198;BME280;67472;51.554;7.812;2023-04-10T05:47:47;101227.69;;;5.28;100.00
78198;BME280;67472;51.554;7.812;2023-04-10T05:50:38;101226.72;;;5.46;100.00
78198;BME280;67472;51.554;7.812;2023-04-10T05:53:33;101227.28;;;5.68;100.00
78198;BME280;67472;51.554;7.812;2023-04-10T05:56:44;101218.22;;;5.74;100.00
78198;BME280;67472;51.554;7.812;2023-04-10T05:59:37;101206.97;;;5.72;100.00
78198;BME280;67472;51.554;7.812;2023-04-10T06:02:45;101205.63;;;5.65;100.00
78198;BME280;67472;51.554;7.812;2023-04-10T06:05:39;101208.84;;;5.70;100.00
78198;BME280;67472;51.554;7.812;2023-04-10T06:08:25;101200.28;;;5.66;100.00
78198;BME280;67472;51.554;7.812;2023-04-10T06:11:11;101207.13;;;5.69;100.00
78198;BME280;67472;51.554;7.812;2023-04-10T06:14:00;101200.06;;;5.71;100.00
78198;BME280;67472;51.554;7.812;2023-04-10T06:16:52;101194.94;;;5.85;100.00
78198;BME280;67472;51.554;7.812;2023-04-10T06:19:37;101190.44;;;6.03;100.00
78198;BME280;67472;51.554;7.812;2023-04-10T06:22:22;101186.28;;;6.14;100.00
78198;BME280;67472;51.554;7.812;2023-04-10T06:25:08;101189.03;;;6.43;100.00
78198;BME280;67472;51.554;7.812;2023-04-10T06:27:53;101182.97;;;6.56;100.00
78198;BME280;67472;51.554;7.812;2023-04-10T06:30:38;101172.41;;;6.58;100.00
78198;BME280;67472;51.554;7.812;2023-04-10T06:33:25;101164.25;;;6.62;100.00
78198;BME280;67472;51.554;7.812;2023-04-10T06:36:10;101161.66;;;6.76;100.00
78198;BME280;67472;51.554;7.812;2023-04-10T06:39:04;101149.59;;;6.88;100.00
78198;BME280;67472;51.554;7.812;2023-04-10T06:41:51;101155.69;;;7.03;100.00
78198;BME280;67472;51.554;7.812;2023-04-10T06:44:50;101163.31;;;7.21;100.00
78198;BME280;67472;51.554;7.812;2023-04-10T06:47:35;101165.56;;;7.42;100.00
78198;BME280;67472;51.554;7.812;2023-04-10T06:50:20;101168.72;;;7.75;100.00
78198;BME280;67472;51.554;7.812;2023-04-10T06:53:05;101168.75;;;8.02;100.00
78198;BME280;67472;51.554;7.812;2023-04-10T06:55:50;101156.09;;;8.21;100.00
78198;BME280;67472;51.554;7.812;2023-04-10T06:58:35;101143.88;;;8.46;100.00
78198;BME280;67472;51.554;7.812;2023-04-10T07:01:20;101138.78;;;8.70;100.00
78198;BME280;67472;51.554;7.812;2023-04-10T07:04:05;101123.50;;;8.88;100.00
78198;BME280;67472;51.554;7.812;2023-04-10T07:06:50;101111.03;;;9.15;100.00
78198;BME280;67472;51.554;7.812;2023-04-10T07:09:35;101106.88;;;9.49;100.00
78198;BME280;67472;51.554;7.812;2023-04-10T07:12:20;101100.69;;;9.74;100.00
78198;BME280;67472;51.554;7.812;2023-04-10T07:15:07;101094.16;;;9.90;100.00
78198;BME280;67472;51.554;7.812;2023-04-10T07:17:52;101102.03;;;10.03;100.00
78198;BME280;67472;51.554;7.812;2023-04-10T07:20:37;101088.81;;;10.15;100.00
78198;BME280;67472;51.554;7.812;2023-04-10T07:23:22;101089.78;;;10.02;100.00
78198;BME280;67472;51.554;7.812;2023-04-10T07:26:07;101082.94;;;10.23;100.00
78198;BME280;67472;51.554;7.812;2023-04-10T07:28:52;101056.59;;;10.45;100.00
78198;BME280;67472;51.554;7.812;2023-04-10T07:31:37;101053.19;;;10.78;100.00
78198;BME280;67472;51.554;7.812;2023-04-10T07:34:22;101054.25;;;11.09;100.00
78198;BME280;67472;51.554;7.812;2023-04-10T07:37:07;101054.50;;;11.17;100.00
78198;BME280;67472;51.554;7.812;2023-04-10T07:39:52;101012.22;;;11.60;98.34
78198;BME280;67472;51.554;7.812;2023-04-10T07:42:37;101002.91;;;12.08;94.36
78198;BME280;67472;51.554;7.812;2023-04-10T07:45:22;100975.72;;;12.57;85.26
78198;BME280;67472;51.554;7.812;2023-04-10T07:48:07;101011.69;;;12.80;81.13
78198;BME280;67472;51.554;7.812;2023-04-10T07:50:52;100999.47;;;12.98;77.64
78198;BME280;67472;51.554;7.812;2023-04-10T07:53:37;100999.09;;;13.03;75.06
78198;BME280;67472;51.554;7.812;2023-04-10T07:56:22;100988.41;;;13.14;73.86
78198;BME280;67472;51.554;7.812;2023-04-10T07:59:07;100992.34;;;13.39;73.44
78198;BME280;67472;51.554;7.812;2023-04-10T08:01:53;100982.59;;;13.58;72.89
78198;BME280;67472;51.554;7.812;2023-04-10T08:04:39;100971.88;;;13.70;71.53
78198;BME280;67472;51.554;7.812;2023-04-10T08:07:24;100969.34;;;13.78;71.10
78198;BME280;67472;51.554;7.812;2023-04-10T08:10:09;100954.50;;;13.85;69.65
78198;BME280;67472;51.554;7.812;2023-04-10T08:12:54;100953.66;;;14.03;70.09
78198;BME280;67472;51.554;7.812;2023-04-10T08:15:38;100953.38;;;14.06;69.36
78198;BME280;67472;51.554;7.812;2023-04-10T08:18:23;100940.78;;;14.08;68.63
78198;BME280;67472;51.554;7.812;2023-04-10T08:21:09;100929.88;;;14.21;68.44
78198;BME280;67472;51.554;7.812;2023-04-10T08:23:55;100928.34;;;14.19;67.55
78198;BME280;67472;51.554;7.812;2023-04-10T08:26:40;100911.38;;;14.29;67.14
78198;BME280;67472;51.554;7.812;2023-04-10T08:29:25;100902.69;;;14.37;65.87
78198;BME280;67472;51.554;7.812;2023-04-10T08:32:10;100884.06;;;14.46;65.06
78198;BME280;67472;51.554;7.812;2023-04-10T08:34:55;100875.59;;;14.60;63.49
78198;BME280;67472;51.554;7.812;2023-04-10T08:37:40;100882.13;;;14.66;64.28
78198;BME280;67472;51.554;7.812;2023-04-10T08:40:26;100874.72;;;14.69;64.10
78198;BME280;67472;51.554;7.812;2023-04-10T08:43:10;100860.28;;;14.45;62.94
78198;BME280;67472;51.554;7.812;2023-04-10T08:45:56;100868.53;;;14.69;62.94
78198;BME280;67472;51.554;7.812;2023-04-10T08:48:45;100868.28;;;14.90;62.89
78198;BME280;67472;51.554;7.812;2023-04-10T08:51:45;100844.19;;;14.74;60.95
78198;BME280;67472;51.554;7.812;2023-04-10T08:54:37;100864.44;;;14.75;62.19
78198;BME280;67472;51.554;7.812;2023-04-10T08:57:22;100847.44;;;14.67;61.32
78198;BME280;67472;51.554;7.812;2023-04-10T09:00:08;100834.31;;;14.84;60.22
78198;BME280;67472;51.554;7.812;2023-04-10T09:02:53;100827.00;;;15.21;59.21
78198;BME280;67472;51.554;7.812;2023-04-10T09:05:41;100822.38;;;15.41;58.79
78198;BME280;67472;51.554;7.812;2023-04-10T09:08:26;100822.00;;;15.53;58.73
78198;BME280;67472;51.554;7.812;2023-04-10T09:11:13;100810.06;;;15.40;57.77
78198;BME280;67472;51.554;7.812;2023-04-10T09:13:57;100832.38;;;15.64;59.87
78198;BME280;67472;51.554;7.812;2023-04-10T09:16:43;100818.00;;;15.75;57.78
78198;BME280;67472;51.554;7.812;2023-04-10T09:19:29;100783.91;;;15.78;56.23
78198;BME280;67472;51.554;7.812;2023-04-10T09:22:14;100767.75;;;15.80;54.94
78198;BME280;67472;51.554;7.812;2023-04-10T09:25:02;100784.25;;;15.83;55.55
78198;BME280;67472;51.554;7.812;2023-04-10T09:28:01;100754.75;;;15.77;54.46
78198;BME280;67472;51.554;7.812;2023-04-10T09:30:47;100750.28;;;15.86;54.84
78198;BME280;67472;51.554;7.812;2023-04-10T09:33:31;100750.31;;;15.94;54.35
78198;BME280;67472;51.554;7.812;2023-04-10T09:36:17;100744.53;;;15.98;53.86
78198;BME280;67472;51.554;7.812;2023-04-10T09:39:05;100767.94;;;16.20;55.12
78198;BME280;67472;51.554;7.812;2023-04-10T09:41:52;100754.16;;;16.33;54.21
78198;BME280;67472;51.554;7.812;2023-04-10T09:44:40;100753.22;;;16.50;53.06
78198;BME280;67472;51.554;7.812;2023-04-10T09:47:25;100732.53;;;16.52;51.93
78198;BME280;67472;51.554;7.812;2023-04-10T09:50:10;100723.16;;;16.40;51.14
78198;BME280;67472;51.554;7.812;2023-04-10T09:52:56;100734.34;;;16.35;51.31
78198;BME280;67472;51.554;7.812;2023-04-10T09:55:42;100731.16;;;16.32;50.80
78198;BME280;67472;51.554;7.812;2023-04-10T09:58:27;100723.78;;;16.18;50.68
78198;BME280;67472;51.554;7.812;2023-04-10T10:01:12;100730.63;;;16.28;51.17
78198;BME280;67472;51.554;7.812;2023-04-10T10:04:00;100736.03;;;16.53;51.49
78198;BME280;67472;51.554;7.812;2023-04-10T10:06:45;100743.94;;;16.62;51.16
78198;BME280;67472;51.554;7.812;2023-04-10T10:09:30;100734.63;;;16.90;51.33
78198;BME280;67472;51.554;7.812;2023-04-10T10:12:23;100744.97;;;17.18;51.83
78198;BME280;67472;51.554;7.812;2023-04-10T10:15:15;100723.94;;;17.23;50.12
78198;BME280;67472;51.554;7.812;2023-04-10T10:18:28;100723.59;;;17.34;50.42
78198;BME280;67472;51.554;7.812;2023-04-10T10:21:17;100723.06;;;17.46;50.28
78198;BME280;67472;51.554;7.812;2023-04-10T10:24:07;100710.72;;;17.45;49.39
78198;BME280;67472;51.554;7.812;2023-04-10T10:26:53;100702.41;;;17.24;49.67
78198;BME280;67472;51.554;7.812;2023-04-10T10:29:39;100707.13;;;17.06;49.90
78198;BME280;67472;51.554;7.812;2023-04-10T10:32:27;100684.22;;;17.20;49.09
78198;BME280;67472;51.554;7.812;2023-04-10T10:35:13;100671.53;;;17.22;48.67
78198;BME280;67472;51.554;7.812;2023-04-10T10:37:59;100663.38;;;17.15;48.18
78198;BME280;67472;51.554;7.812;2023-04-10T10:41:00;100668.19;;;17.28;48.41
78198;BME280;67472;51.554;7.812;2023-04-10T10:46:50;100691.53;;;17.58;49.74
78198;BME280;67472;51.554;7.812;2023-04-10T10:49:58;100675.56;;;17.81;48.76
78198;BME280;67472;51.554;7.812;2023-04-10T10:52:48;100650.78;;;17.64;47.56
78198;BME280;67472;51.554;7.812;2023-04-10T10:55:33;100630.22;;;17.65;47.44
78198;BME280;67472;51.554;7.812;2023-04-10T10:58:54;100618.22;;;17.52;47.14
78198;BME280;67472;51.554;7.812;2023-04-10T11:02:12;100631.44;;;17.54;47.65
78198;BME280;67472;51.554;7.812;2023-04-10T11:04:57;100613.56;;;17.55;47.24
78198;BME280;67472;51.554;7.812;2023-04-10T11:08:08;100615.75;;;17.43;47.65
78198;BME280;67472;51.554;7.812;2023-04-10T11:11:06;100612.41;;;17.49;48.29
78198;BME280;67472;51.554;7.812;2023-04-10T11:16:40;100605.38;;;17.48;47.60
78198;BME280;67472;51.554;7.812;2023-04-10T11:19:26;100605.59;;;17.77;47.43
78198;BME280;67472;51.554;7.812;2023-04-10T11:22:11;100582.22;;;17.79;46.68
78198;BME280;67472;51.554;7.812;2023-04-10T11:24:59;100592.47;;;17.98;47.34
78198;BME280;67472;51.554;7.812;2023-04-10T11:27:46;100584.03;;;18.10;46.97
78198;BME280;67472;51.554;7.812;2023-04-10T11:30:35;100565.59;;;17.92;46.19
78198;BME280;67472;51.554;7.812;2023-04-10T11:33:20;100566.25;;;17.94;46.21
78198;BME280;67472;51.554;7.812;2023-04-10T11:36:05;100554.97;;;17.84;46.35
78198;BME280;67472;51.554;7.812;2023-04-10T11:41:56;100545.41;;;17.89;45.82
78198;BME280;67472;51.554;7.812;2023-04-10T11:44:41;100549.56;;;18.15;46.71
78198;BME280;67472;51.554;7.812;2023-04-10T11:47:26;100535.94;;;18.47;46.33
78198;BME280;67472;51.554;7.812;2023-04-10T11:50:12;100525.50;;;18.75;46.34
78198;BME280;67472;51.554;7.812;2023-04-10T11:52:58;100519.13;;;18.76;45.57
78198;BME280;67472;51.554;7.812;2023-04-10T11:55:43;100523.63;;;18.75;46.26
78198;BME280;67472;51.554;7.812;2023-04-10T11:58:29;100510.81;;;18.56;45.98
78198;BME280;67472;51.554;7.812;2023-04-10T12:01:19;100519.84;;;18.70;47.41
78198;BME280;67472;51.554;7.812;2023-04-10T12:04:16;100505.94;;;18.89;46.10
78198;BME280;67472;51.554;7.812;2023-04-10T12:07:02;100486.63;;;18.64;45.85
78198;BME280;67472;51.554;7.812;2023-04-10T12:09:57;100514.97;;;18.58;47.64
78198;BME280;67472;51.554;7.812;2023-04-10T12:12:43;100487.28;;;18.51;46.28
78198;BME280;67472;51.554;7.812;2023-04-10T12:15:28;100493.13;;;18.47;46.95
78198;BME280;67472;51.554;7.812;2023-04-10T12:18:12;100484.47;;;18.45;46.75
78198;BME280;67472;51.554;7.812;2023-04-10T12:20:58;100496.63;;;18.33;47.05
78198;BME280;67472;51.554;7.812;2023-04-10T12:23:43;100473.34;;;18.19;46.62
78198;BME280;67472;51.554;7.812;2023-04-10T12:26:29;100475.88;;;18.35;46.70
78198;BME280;67472;51.554;7.812;2023-04-10T12:29:13;100458.22;;;18.48;45.14
78198;BME280;67472;51.554;7.812;2023-04-10T12:32:07;100453.31;;;18.67;45.01
78198;BME280;67472;51.554;7.812;2023-04-10T12:34:56;100446.88;;;18.76;44.09
78198;BME280;67472;51.554;7.812;2023-04-10T12:37:51;100420.31;;;18.74;42.53
78198;BME280;67472;51.554;7.812;2023-04-10T12:40:37;100436.38;;;18.74;43.74
78198;BME280;67472;51.554;7.812;2023-04-10T12:46:28;100394.50;;;19.02;41.56
78198;BME280;67472;51.554;7.812;2023-04-10T12:49:16;100401.06;;;19.00;42.19
78198;BME280;67472;51.554;7.812;2023-04-10T12:52:02;100383.16;;;19.00;40.57
78198;BME280;67472;51.554;7.812;2023-04-10T12:54:47;100406.00;;;19.17;41.52
78198;BME280;67472;51.554;7.812;2023-04-10T12:57:32;100392.69;;;18.88;40.91
78198;BME280;67472;51.554;7.812;2023-04-10T13:00:18;100402.84;;;19.29;41.88
78198;BME280;67472;51.554;7.812;2023-04-10T13:03:03;100397.31;;;19.51;41.15
78198;BME280;67472;51.554;7.812;2023-04-10T13:05:48;100375.28;;;19.35;40.53
78198;BME280;67472;51.554;7.812;2023-04-10T13:08:34;100351.88;;;19.22;38.74
78198;BME280;67472;51.554;7.812;2023-04-10T13:11:19;100349.06;;;19.09;38.37
78198;BME280;67472;51.554;7.812;2023-04-10T13:14:04;100325.06;;;18.80;38.42
78198;BME280;67472;51.554;7.812;2023-04-10T13:16:49;100338.78;;;18.91;39.14
78198;BME280;67472;51.554;7.812;2023-04-10T13:19:33;100330.50;;;18.86;39.28
78198;BME280;67472;51.554;7.812;2023-04-10T13:22:19;100325.59;;;18.75;38.92
78198;BME280;67472;51.554;7.812;2023-04-10T13:25:04;100313.84;;;18.91;38.63
78198;BME280;67472;51.554;7.812;2023-04-10T13:27:49;100311.91;;;19.21;38.51
78198;BME280;67472;51.554;7.812;2023-04-10T13:30:34;100318.78;;;19.30;39.14
78198;BME280;67472;51.554;7.812;2023-04-10T13:33:19;100312.75;;;19.42;39.23
78198;BME280;67472;51.554;7.812;2023-04-10T13:36:05;100296.09;;;19.26;39.05
78198;BME280;67472;51.554;7.812;2023-04-10T13:38:50;100300.66;;;19.10;39.39
78198;BME280;67472;51.554;7.812;2023-04-10T13:41:35;100299.97;;;19.23;39.42
78198;BME280;67472;51.554;7.812;2023-04-10T13:44:20;100288.72;;;19.06;38.92
78198;BME280;67472;51.554;7.812;2023-04-10T13:47:05;100267.59;;;18.97;38.72
78198;BME280;67472;51.554;7.812;2023-04-10T13:49:50;100291.56;;;19.26;39.63
78198;BME280;67472;51.554;7.812;2023-04-10T13:52:38;100286.09;;;19.62;39.42
78198;BME280;67472;51.554;7.812;2023-04-10T13:55:23;100241.53;;;19.33;38.10
78198;BME280;67472;51.554;7.812;2023-04-10T13:58:12;100252.84;;;19.29;38.72
78198;BME280;67472;51.554;7.812;2023-04-10T14:00:57;100229.22;;;19.11;37.56
78198;BME280;67472;51.554;7.812;2023-04-10T14:03:42;100217.09;;;19.15;37.92
78198;BME280;67472;51.554;7.812;2023-04-10T14:06:27;100232.09;;;18.88;38.91
78198;BME280;67472;51.554;7.812;2023-04-10T14:09:11;100253.69;;;19.29;39.49
78198;BME280;67472;51.554;7.812;2023-04-10T14:11:57;100216.97;;;19.02;37.69
78198;BME280;67472;51.554;7.812;2023-04-10T14:14:43;100196.28;;;18.89;37.31
78198;BME280;67472;51.554;7.812;2023-04-10T14:17:28;100209.53;;;18.76;38.41
78198;BME280;67472;51.554;7.812;2023-04-10T14:20:13;100205.16;;;18.69;38.65
78198;BME280;67472;51.554;7.812;2023-04-10T14:22:58;100195.66;;;18.66;38.14
78198;BME280;67472;51.554;7.812;2023-04-10T14:25:44;100205.84;;;18.77;39.14
78198;BME280;67472;51.554;7.812;2023-04-10T14:28:29;100194.94;;;18.79;38.96
78198;BME280;67472;51.554;7.812;2023-04-10T14:31:14;100170.78;;;18.72;38.18
78198;BME280;67472;51.554;7.812;2023-04-10T14:34:00;100187.66;;;18.73;38.48
78198;BME280;67472;51.554;7.812;2023-04-10T14:36:44;100182.97;;;18.53;38.92
78198;BME280;67472;51.554;7.812;2023-04-10T14:39:29;100188.50;;;18.52;39.18
78198;BME280;67472;51.554;7.812;2023-04-10T14:42:14;100173.66;;;18.35;38.74
78198;BME280;67472;51.554;7.812;2023-04-10T14:44:59;100164.88;;;18.20;38.17
78198;BME280;67472;51.554;7.812;2023-04-10T14:47:45;100176.09;;;18.30;39.66
78198;BME280;67472;51.554;7.812;2023-04-10T14:50:30;100152.91;;;18.16;39.09
78198;BME280;67472;51.554;7.812;2023-04-10T14:53:15;100164.28;;;17.88;39.71
78198;BME280;67472;51.554;7.812;2023-04-10T14:56:00;100157.47;;;17.86;40.60
78198;BME280;67472;51.554;7.812;2023-04-10T14:58:45;100152.75;;;17.88;40.50
78198;BME280;67472;51.554;7.812;2023-04-10T15:01:31;100132.22;;;17.88;40.76
78198;BME280;67472;51.554;7.812;2023-04-10T15:04:16;100141.91;;;17.89;41.22
78198;BME280;67472;51.554;7.812;2023-04-10T15:07:01;100136.00;;;17.79;41.03